EW4071 Weather Reports


Display with metric or nautical units.
time (UTC)temp
F
wind
direction
speed
MPH
gust
MPH
rain 1hr
in
rain 24hr
in
rain mn
in
humidity
%
barometer
mb
20200331173111 60 255 0.0 7.0 0.00 0.31 0.16 65 1018.0
20200331171557 59 221 5.0 8.0 0.00 0.31 0.16 73 1018.0
20200331170051 57 223 3.0 7.0 0.00 0.31 0.16 72 1018.3
20200331164524 58 279 1.0 6.0 0.00 0.31 0.16 72 1018.4
20200331163020 57 230 2.0 7.0 0.00 0.31 0.16 74 1018.6
20200331161516 57 250 1.0 6.0 0.00 0.31 0.16 74 1018.5
20200331160035 57 241 2.0 6.0 0.00 0.31 0.16 76 1018.7
20200331154537 56 277 0.0 5.0 0.00 0.31 0.16 78 1018.5
20200331153003 55 275 1.0 6.0 0.00 0.31 0.16 82 1018.5
20200331151501 54 232 3.0 7.0 0.00 0.31 0.16 85 1018.5
20200331150136 54 285 0.0 0.0 0.00 0.31 0.16 86 1018.3
20200331144731 54 277 1.0 4.0 0.00 0.31 0.16 87 1018.4
20200331143133 52 295 0.0 0.0 0.00 0.31 0.16 90 1018.3
20200331141809 52 302 0.0 0.0 0.00 0.31 0.16 93 1018.0
20200331140142 51 301 0.0 0.0 0.00 0.31 0.16 96 1018.0
20200331134554 50 301 0.0 1.0 0.00 0.31 0.16 97 1017.8
20200331133052 50 306 0.0 0.0 0.00 0.31 0.16 97 1017.6
20200331131656 49 306 0.0 0.0 0.00 0.31 0.16 97 1017.5
20200331130056 49 306 0.0 0.0 0.00 0.31 0.16 97 1017.6
20200331124555 48 306 0.0 0.0 0.00 0.31 0.16 97 1017.7
20200331123109 48 306 0.0 0.0 0.00 0.31 0.16 97 1017.4
20200331121614 48 306 0.0 0.0 0.01 0.31 0.16 96 1017.3
20200331120043 48 306 0.0 0.0 0.01 0.31 0.16 96 1017.2
20200331114611 48 306 0.0 0.0 0.01 0.31 0.16 96 1017.1
20200331113041 48 306 0.0 0.0 0.01 0.31 0.16 96 1016.8
20200331111603 49 85 0.0 0.0 0.00 0.30 0.15 96 1016.6
20200331110028 49 85 0.0 0.0 0.00 0.30 0.15 96 1016.4
20200331104527 49 324 0.0 0.0 0.00 0.30 0.15 96 1016.8
20200331103113 49 322 0.0 1.0 0.00 0.30 0.15 96 1016.9
20200331101536 49 322 0.0 0.0 0.00 0.30 0.15 96 1016.9
20200331100048 49 322 0.0 3.0 0.01 0.30 0.15 96 1016.9
20200331094536 49 324 0.0 1.0 0.01 0.30 0.15 96 1016.7
20200331093057 49 310 0.0 3.0 0.01 0.30 0.15 96 1016.7
20200331090023 49 307 0.0 2.0 0.00 0.28 0.14 96 1016.3
20200331084532 49 313 0.0 3.0 0.00 0.28 0.14 96 1016.2
20200331083037 49 334 0.0 2.0 0.00 0.28 0.14 96 1016.0
20200331081545 49 320 0.0 2.0 0.00 0.28 0.14 96 1016.0
20200331080017 49 120 0.0 1.0 0.01 0.28 0.14 96 1015.9
20200331074532 49 301 0.0 2.0 0.02 0.28 0.14 96 1015.9
20200331073046 49 270 0.0 4.0 0.02 0.28 0.14 96 1015.8
20200331071551 49 293 0.0 3.0 0.03 0.28 0.14 95 1015.7
20200331070042 49 14 0.0 4.0 0.03 0.28 0.13 95 1015.8
20200331064523 49 295 0.0 3.0 0.03 0.27 0.12 96 1015.8
20200331063010 49 358 0.0 4.0 0.08 0.27 0.12 95 1015.8
20200331061507 49 359 0.0 2.0 0.10 0.26 0.11 95 1015.7
20200331060036 49 290 0.0 0.0 0.10 0.25 0.10 95 1015.8
20200331054504 49 290 0.0 1.0 0.10 0.23 0.08 95 1016.0
20200331053331 49 318 0.0 3.0 0.07 0.19 0.04 95 1016.2
20200331051627 49 338 0.0 0.0 0.04 0.16 0.01 95 1016.1
20200331050203 49 337 0.0 1.0 0.03 0.15 0.00 94 1016.1
20200331044836 49 289 0.0 0.0 0.01 0.13 0.13 94 1016.3
20200331043302 50 109 0.0 1.0 0.00 0.12 0.12 93 1016.3
20200331041644 50 109 0.0 0.0 0.00 0.12 0.12 92 1016.2
20200331040330 50 109 0.0 0.0 0.00 0.12 0.12 92 1016.0
20200331034654 50 109 0.0 0.0 0.00 0.12 0.12 91 1016.1
20200331033144 50 109 0.0 3.0 0.00 0.12 0.12 91 1016.2
20200331031758 50 107 0.0 7.0 0.00 0.12 0.12 91 1015.9
20200331030126 50 19 1.0 4.0 0.01 0.12 0.12 91 1015.7
20200331024626 50 43 1.0 5.0 0.02 0.12 0.12 92 1015.7
20200331023138 50 104 0.0 6.0 0.04 0.12 0.12 91 1016.3
20200331021712 50 315 0.0 3.0 0.05 0.12 0.12 91 1016.1
20200331020119 50 78 2.0 8.0 0.04 0.11 0.11 89 1015.6
20200331014606 51 69 1.0 5.0 0.03 0.10 0.10 88 1015.8
20200331013128 51 133 0.0 2.0 0.01 0.08 0.08 87 1016.3
20200331011619 51 133 0.0 1.0 0.00 0.07 0.07 86 1016.2
20200331010345 51 5 0.0 6.0 0.00 0.07 0.07 86 1015.9
20200331004653 51 93 1.0 8.0 0.00 0.07 0.07 87 1015.4
20200331003250 51 104 3.0 8.0 0.01 0.07 0.07 88 1015.6
20200331001545 51 133 2.0 7.0 0.01 0.07 0.07 90 1015.1
20200330234626 52 106 5.0 10.0 0.02 0.07 0.07 91 1014.9
20200330233140 52 108 5.0 11.0 0.01 0.06 0.06 92 1014.6
20200330231620 52 130 3.0 8.0 0.02 0.06 0.06 93 1014.8
20200330230239 51 128 5.0 8.0 0.03 0.06 0.06 93 1015.2
20200330224609 51 167 4.0 8.0 0.04 0.05 0.05 92 1015.8
20200330223112 51 119 7.0 10.0 0.05 0.05 0.05 92 1015.6
20200330221600 51 133 7.0 14.0 0.04 0.04 0.04 91 1015.8
20200330220040 51 130 9.0 15.0 0.03 0.03 0.03 89 1015.6
20200330214702 52 114 13.0 19.0 0.01 0.01 0.01 87 1015.4
20200330213109 53 136 14.0 24.0 0.00 0.00 0.00 80 1015.2
20200330211628 56 174 12.0 19.0 0.00 0.00 0.00 72 1014.7
20200330210109 58 149 13.0 27.0 0.00 0.00 0.00 67 1015.2
20200330204616 60 156 11.0 18.0 0.00 0.00 0.00 61 1014.7
20200330203057 61 157 11.0 15.0 0.00 0.00 0.00 56 1014.4
20200330201552 62 157 11.0 16.0 0.00 0.00 0.00 55 1014.7
20200330200026 62 146 6.0 12.0 0.00 0.00 0.00 58 1015.0
20200330194618 63 123 8.0 12.0 0.00 0.00 0.00 56 1015.5
20200330193122 63 185 1.0 11.0 0.00 0.00 0.00 54 1015.6
20200330191520 64 124 8.0 12.0 0.00 0.00 0.00 51 1015.6
20200330190034 63 121 8.0 13.0 0.00 0.00 0.00 52 1015.6
20200330184515 63 134 5.0 11.0 0.00 0.00 0.00 53 1016.3
20200330183020 63 126 6.0 9.0 0.00 0.00 0.00 56 1016.7
20200330181531 63 135 3.0 11.0 0.00 0.00 0.00 54 1016.9
20200330180012 63 114 3.0 7.0 0.00 0.00 0.00 58 1017.0
20200330174501 62 154 4.0 8.0 0.00 0.00 0.00 57 1017.3